createdAt,value
2017-08-16T00:01:23.756Z,61.30
2017-08-16T00:03:52.107Z,61.85
2017-08-16T00:06:20.456Z,62.07
2017-08-16T00:08:48.807Z,62.16
2017-08-16T00:11:17.156Z,62.09
2017-08-16T00:13:45.992Z,62.03
2017-08-16T00:16:14.616Z,61.87
2017-08-16T00:18:43.361Z,61.98
2017-08-16T00:21:11.724Z,62.10
2017-08-16T00:23:40.067Z,61.61
2017-08-16T00:26:08.814Z,61.45
2017-08-16T00:28:37.169Z,61.16
2017-08-16T00:31:05.532Z,61.21
2017-08-16T00:33:33.880Z,61.20
2017-08-16T00:36:02.227Z,61.38
2017-08-16T00:38:30.572Z,60.99
2017-08-16T00:40:58.923Z,61.00
2017-08-16T00:43:27.265Z,61.02
2017-08-16T00:45:55.776Z,60.89
2017-08-16T00:48:24.122Z,60.54
2017-08-16T00:50:52.472Z,60.48
2017-08-16T00:53:20.836Z,60.59
2017-08-16T00:55:49.575Z,60.63
2017-08-16T00:58:17.941Z,61.05
2017-08-16T01:00:46.288Z,61.36
2017-08-16T01:03:14.648Z,61.30
2017-08-16T01:05:43.397Z,61.77
2017-08-16T01:08:11.881Z,62.07
2017-08-16T01:10:40.247Z,62.36
2017-08-16T01:13:08.590Z,62.47
2017-08-16T01:15:37.335Z,62.62
2017-08-16T01:18:05.693Z,62.69
2017-08-16T01:20:34.034Z,63.30
2017-08-16T01:23:02.771Z,63.56
2017-08-16T01:25:31.124Z,63.56
2017-08-16T01:27:59.463Z,63.89
2017-08-16T01:30:28.611Z,64.09
2017-08-16T01:32:56.950Z,64.14
2017-08-16T01:35:25.678Z,64.22
2017-08-16T01:37:54.031Z,64.25
2017-08-16T01:40:22.380Z,64.27
2017-08-16T01:42:50.740Z,64.47
2017-08-16T01:45:19.093Z,64.64
2017-08-16T01:47:47.441Z,64.90
2017-08-16T01:50:15.787Z,65.02
2017-08-16T01:52:44.140Z,65.55
2017-08-16T01:55:12.492Z,65.71
2017-08-16T01:57:41.187Z,65.66
2017-08-16T02:00:09.544Z,65.83
2017-08-16T02:02:38.288Z,65.71
2017-08-16T02:05:06.649Z,66.09
2017-08-16T02:07:35.000Z,66.17
2017-08-16T02:10:03.352Z,65.86
2017-08-16T02:12:32.347Z,66.30
2017-08-16T02:15:01.100Z,66.27
2017-08-16T02:17:29.449Z,66.80
2017-08-16T02:19:57.804Z,66.69
2017-08-16T02:22:26.539Z,66.80
2017-08-16T02:24:54.887Z,66.97
2017-08-16T02:27:23.230Z,67.09
2017-08-16T02:29:51.583Z,67.00
2017-08-16T02:32:20.204Z,67.85
2017-08-16T02:34:48.960Z,68.45
2017-08-16T02:37:17.312Z,68.82
2017-08-16T02:39:45.666Z,68.84
2017-08-16T02:42:14.430Z,68.73
2017-08-16T02:44:42.776Z,68.73
2017-08-16T02:47:11.143Z,69.62
2017-08-16T02:49:39.497Z,70.20
2017-08-16T02:52:08.159Z,70.01
2017-08-16T02:54:36.905Z,70.44
2017-08-16T02:57:05.261Z,70.51
2017-08-16T02:59:33.602Z,70.53
2017-08-16T03:02:02.605Z,70.51
2017-08-16T03:04:31.355Z,70.50
2017-08-16T03:06:59.713Z,71.01
2017-08-16T03:09:28.068Z,71.51
2017-08-16T03:11:56.417Z,72.25
2017-08-16T03:14:25.013Z,72.32
2017-08-16T03:16:53.756Z,72.77
2017-08-16T03:19:22.112Z,73.13
2017-08-16T03:21:50.468Z,73.25
2017-08-16T03:24:19.225Z,73.61
2017-08-16T03:26:47.580Z,73.81
2017-08-16T03:29:15.941Z,74.08
2017-08-16T03:31:44.283Z,74.56
2017-08-16T03:34:13.041Z,74.84
2017-08-16T03:36:41.384Z,74.85
2017-08-16T03:39:09.878Z,75.29
2017-08-16T03:41:38.228Z,74.99
2017-08-16T03:44:06.972Z,75.22
2017-08-16T03:46:35.336Z,75.07
2017-08-16T03:49:03.689Z,75.09
2017-08-16T03:51:32.040Z,75.36
2017-08-16T03:54:00.383Z,75.59
2017-08-16T03:56:28.745Z,75.62
2017-08-16T03:58:57.077Z,75.84
2017-08-16T04:01:25.507Z,75.96
2017-08-16T04:03:53.973Z,76.34
2017-08-16T04:06:22.586Z,76.09
2017-08-16T04:08:50.932Z,75.79
2017-08-16T04:11:19.289Z,75.67
2017-08-16T04:13:48.026Z,76.09
2017-08-16T04:16:16.376Z,75.87
2017-08-16T04:18:44.736Z,75.87
2017-08-16T04:21:13.488Z,76.36
2017-08-16T04:23:41.844Z,76.67
2017-08-16T04:26:10.208Z,76.55
2017-08-16T04:28:38.566Z,76.86
2017-08-16T04:31:06.967Z,76.82
2017-08-16T04:33:35.780Z,77.13
2017-08-16T04:36:04.119Z,76.85
2017-08-16T04:38:32.464Z,76.92
2017-08-16T04:41:01.059Z,77.00
2017-08-16T04:43:29.795Z,76.89
2017-08-16T04:45:58.161Z,77.08
2017-08-16T04:48:26.558Z,76.64
2017-08-16T04:50:54.918Z,76.20
2017-08-16T04:53:23.255Z,76.41
2017-08-16T04:55:51.611Z,76.37
2017-08-16T04:58:19.964Z,75.80
2017-08-16T05:00:48.316Z,76.38
2017-08-16T05:03:17.046Z,76.49
2017-08-16T05:05:45.627Z,76.49
2017-08-16T05:08:13.966Z,76.34
2017-08-16T05:10:42.807Z,76.34
2017-08-16T05:13:11.146Z,75.59
2017-08-16T05:15:39.499Z,75.45
2017-08-16T05:18:08.254Z,75.54
2017-08-16T05:20:36.591Z,74.71
2017-08-16T05:23:04.943Z,75.44
2017-08-16T05:25:33.686Z,75.82
2017-08-16T05:28:02.039Z,76.19
2017-08-16T05:30:30.432Z,76.40
2017-08-16T05:32:58.788Z,76.49
2017-08-16T05:35:27.535Z,76.53
2017-08-16T05:37:56.114Z,76.71
2017-08-16T05:40:24.462Z,77.17
2017-08-16T05:42:52.807Z,77.14
2017-08-16T05:45:21.568Z,77.10
2017-08-16T05:47:49.925Z,76.19
2017-08-16T05:50:18.289Z,76.05
2017-08-16T05:52:46.630Z,75.98
2017-08-16T05:55:15.370Z,75.55
2017-08-16T05:57:43.715Z,75.56
2017-08-16T06:00:12.141Z,75.11
2017-08-16T06:02:40.483Z,74.43
2017-08-16T06:05:08.840Z,74.09
2017-08-16T06:07:37.247Z,74.12
2017-08-16T06:10:05.608Z,74.95
2017-08-16T06:12:34.353Z,74.46
2017-08-16T06:15:02.708Z,74.87
2017-08-16T06:17:31.056Z,74.64
2017-08-16T06:19:59.570Z,74.96
2017-08-16T06:22:27.911Z,75.06
2017-08-16T06:24:56.659Z,75.06
2017-08-16T06:27:24.576Z,75.80
2017-08-16T06:29:52.470Z,77.79
2017-08-16T06:32:20.374Z,77.81
2017-08-16T06:34:48.279Z,78.07
2017-08-16T06:37:16.577Z,77.60
2017-08-16T06:39:44.479Z,78.22
2017-08-16T06:42:12.564Z,78.31
2017-08-16T06:44:40.468Z,78.88
2017-08-16T06:47:08.367Z,78.95
2017-08-16T06:49:36.368Z,80.38
2017-08-16T06:52:04.344Z,80.54
2017-08-16T06:54:32.616Z,80.65
2017-08-16T06:57:00.511Z,81.91
2017-08-16T06:59:28.819Z,82.11
2017-08-16T07:01:56.727Z,82.61
2017-08-16T07:04:24.624Z,82.95
2017-08-16T07:06:52.921Z,83.30
2017-08-16T07:09:20.815Z,84.30
2017-08-16T07:11:48.735Z,84.20
2017-08-16T07:14:17.335Z,83.68
2017-08-16T07:16:45.481Z,83.56
2017-08-16T07:19:13.382Z,82.87
2017-08-16T07:21:41.292Z,84.91
2017-08-16T07:24:09.208Z,84.43
2017-08-16T07:26:37.513Z,85.46
2017-08-16T07:29:05.424Z,86.72
2017-08-16T07:31:33.333Z,86.71
2017-08-16T07:34:01.229Z,87.70
2017-08-16T07:36:29.135Z,88.36
2017-08-16T07:38:57.039Z,89.11
2017-08-16T07:41:24.944Z,89.67
2017-08-16T07:43:52.846Z,89.90
2017-08-16T07:46:20.746Z,89.74
2017-08-16T07:48:48.861Z,89.65
2017-08-16T07:51:16.772Z,90.42
2017-08-16T07:53:45.066Z,90.92
2017-08-16T07:56:12.980Z,90.81
2017-08-16T07:58:40.871Z,91.16
2017-08-16T08:01:08.792Z,91.69
2017-08-16T08:03:36.939Z,91.77
2017-08-16T08:06:04.850Z,91.92
2017-08-16T08:08:32.745Z,92.78
2017-08-16T08:11:00.812Z,93.31
2017-08-16T08:13:28.712Z,93.28
2017-08-16T08:15:57.006Z,93.98
2017-08-16T08:18:25.037Z,94.32
2017-08-16T08:20:52.944Z,94.17
2017-08-16T08:23:20.869Z,94.69
2017-08-16T08:25:48.777Z,94.97
2017-08-16T08:28:16.692Z,95.11
2017-08-16T08:30:45.332Z,94.73
2017-08-16T08:33:13.412Z,94.84
2017-08-16T08:35:41.320Z,94.71
2017-08-16T08:38:09.233Z,95.01
2017-08-16T08:40:37.539Z,95.12
2017-08-16T08:43:05.451Z,94.82
2017-08-16T08:45:33.373Z,94.88
2017-08-16T08:48:01.284Z,95.20
2017-08-16T08:50:29.204Z,95.48
2017-08-16T08:52:57.108Z,95.11
2017-08-16T08:55:25.389Z,95.12
2017-08-16T08:57:53.282Z,94.64
2017-08-16T09:00:21.589Z,94.78
2017-08-16T09:02:49.521Z,95.20
2017-08-16T09:05:17.438Z,94.83
2017-08-16T09:07:45.889Z,95.04
2017-08-16T09:10:14.194Z,94.57
2017-08-16T09:12:42.111Z,94.46
2017-08-16T09:15:10.011Z,94.81
2017-08-16T09:17:38.316Z,94.44
2017-08-16T09:20:06.215Z,94.28
2017-08-16T09:22:34.126Z,93.81
2017-08-16T09:25:02.423Z,93.60
2017-08-16T09:27:30.552Z,93.54
2017-08-16T09:29:58.456Z,93.94
2017-08-16T09:32:26.354Z,93.16
2017-08-16T09:34:54.267Z,93.28
2017-08-16T09:37:22.581Z,93.11
2017-08-16T09:39:50.500Z,93.24
2017-08-16T09:42:18.436Z,93.37
2017-08-16T09:44:46.541Z,93.40
2017-08-16T09:47:14.449Z,93.09
2017-08-16T09:49:42.356Z,92.79
2017-08-16T09:52:10.263Z,92.76
2017-08-16T09:54:38.564Z,93.14
2017-08-16T09:57:06.550Z,93.22
2017-08-16T09:59:34.450Z,93.15
2017-08-16T10:02:02.373Z,92.43
2017-08-16T10:04:30.280Z,92.84
2017-08-16T10:06:58.377Z,90.79
2017-08-16T10:09:26.278Z,89.83
2017-08-16T10:11:54.189Z,89.21
2017-08-16T10:14:22.095Z,89.90
2017-08-16T10:16:50.880Z,86.93
2017-08-16T10:19:18.845Z,88.91
2017-08-16T10:21:46.752Z,87.26
2017-08-16T10:24:14.667Z,87.19
2017-08-16T10:26:42.577Z,88.06
2017-08-16T10:29:11.029Z,87.71
2017-08-16T10:31:38.940Z,87.18
2017-08-16T10:34:06.856Z,85.60
2017-08-16T10:36:34.781Z,86.31
2017-08-16T10:39:02.705Z,86.28
2017-08-16T10:41:30.610Z,87.29
2017-08-16T10:43:58.779Z,88.04
2017-08-16T10:46:26.957Z,86.66
2017-08-16T10:48:54.864Z,86.55
2017-08-16T10:51:22.770Z,86.41
2017-08-16T10:53:51.076Z,85.35
2017-08-16T10:56:19.203Z,84.53
2017-08-16T10:58:47.112Z,84.77
2017-08-16T11:01:15.026Z,85.61
2017-08-16T11:03:42.945Z,85.68
2017-08-16T11:06:11.243Z,86.03
2017-08-16T11:08:39.160Z,86.21
2017-08-16T11:11:07.063Z,85.46
2017-08-16T11:13:35.300Z,84.45
2017-08-16T11:16:03.211Z,82.53
2017-08-16T11:18:31.112Z,81.20
2017-08-16T11:20:59.473Z,75.79
2017-08-16T11:23:27.396Z,70.27
2017-08-16T11:25:55.317Z,66.75
2017-08-16T11:28:23.216Z,65.20
2017-08-16T11:30:51.126Z,65.18
2017-08-16T11:33:19.027Z,65.77
2017-08-16T11:35:47.040Z,64.18
2017-08-16T11:38:14.946Z,62.44
2017-08-16T11:40:43.121Z,62.46
2017-08-16T11:43:11.023Z,61.64
2017-08-16T11:45:39.320Z,62.88
2017-08-16T11:48:07.223Z,62.17
2017-08-16T11:50:35.524Z,62.46
2017-08-16T11:53:04.225Z,60.90
2017-08-16T11:55:32.178Z,61.08
2017-08-16T11:58:00.096Z,60.98
2017-08-16T12:00:27.995Z,60.52
2017-08-16T12:02:56.298Z,59.74
2017-08-16T12:05:24.208Z,59.85
2017-08-16T12:07:52.470Z,60.40
2017-08-16T12:10:20.925Z,59.69
2017-08-16T12:12:48.845Z,58.64
2017-08-16T12:15:16.762Z,58.09
2017-08-16T12:17:44.660Z,59.45
2017-08-16T12:20:12.572Z,60.50
2017-08-16T12:22:40.881Z,59.93
2017-08-16T12:25:08.787Z,59.61
2017-08-16T12:27:36.695Z,61.00
2017-08-16T12:30:04.617Z,61.18
2017-08-16T12:32:32.516Z,61.17
2017-08-16T12:35:00.976Z,60.39
2017-08-16T12:37:28.874Z,60.37
2017-08-16T12:39:57.172Z,60.41
2017-08-16T12:42:25.087Z,59.59
2017-08-16T12:44:53.072Z,58.16
2017-08-16T12:47:20.989Z,59.29
2017-08-16T12:49:48.900Z,57.63
2017-08-16T12:52:16.858Z,58.26
2017-08-16T12:54:44.785Z,58.32
2017-08-16T12:57:12.704Z,58.06
2017-08-16T12:59:40.612Z,57.58
2017-08-16T13:02:08.750Z,56.25
2017-08-16T13:04:36.716Z,58.04
2017-08-16T13:07:04.629Z,57.82
2017-08-16T13:09:32.548Z,56.77
2017-08-16T13:12:00.446Z,57.07
2017-08-16T13:14:28.770Z,57.11
2017-08-16T13:16:56.686Z,56.48
2017-08-16T13:19:24.990Z,56.70
2017-08-16T13:21:52.893Z,56.90
2017-08-16T13:24:21.044Z,57.07
2017-08-16T13:26:48.957Z,57.81
2017-08-16T13:29:16.855Z,58.24
2017-08-16T13:31:45.167Z,57.30
2017-08-16T13:34:13.071Z,58.91
2017-08-16T13:36:40.997Z,58.69
2017-08-16T13:39:08.895Z,58.52
2017-08-16T13:41:36.802Z,58.63
2017-08-16T13:44:05.113Z,59.72
2017-08-16T13:46:33.023Z,59.42
2017-08-16T13:49:00.942Z,59.95
2017-08-16T13:51:29.073Z,59.15
2017-08-16T13:53:56.970Z,59.21
2017-08-16T13:56:25.147Z,57.57
2017-08-16T13:58:53.065Z,56.00
2017-08-16T14:01:20.976Z,57.91
2017-08-16T14:03:49.280Z,57.57
2017-08-16T14:06:17.183Z,57.79
2017-08-16T14:08:45.095Z,56.51
2017-08-16T14:11:13.397Z,58.19
2017-08-16T14:13:41.530Z,58.86
2017-08-16T14:16:09.845Z,59.84
2017-08-16T14:18:38.556Z,58.86
2017-08-16T14:21:06.477Z,58.63
2017-08-16T14:23:34.781Z,57.68
2017-08-16T14:26:02.704Z,57.39
2017-08-16T14:28:30.614Z,57.55
2017-08-16T14:30:58.737Z,57.40
2017-08-16T14:33:26.947Z,56.66
2017-08-16T14:35:54.852Z,57.41
2017-08-16T14:38:22.763Z,57.40
2017-08-16T14:40:51.073Z,55.65
2017-08-16T14:43:18.993Z,54.31
2017-08-16T14:45:46.905Z,53.55
2017-08-16T14:48:14.823Z,52.75
2017-08-16T14:50:42.859Z,52.09
2017-08-16T14:53:10.762Z,52.48
2017-08-16T14:55:38.689Z,54.07
2017-08-16T14:58:06.600Z,54.54
2017-08-16T15:00:34.514Z,54.01
2017-08-16T15:03:02.419Z,54.30
2017-08-16T15:05:30.349Z,54.23
2017-08-16T15:07:58.265Z,54.39
2017-08-16T15:10:26.189Z,55.37
2017-08-16T15:12:54.086Z,55.37
2017-08-16T15:15:22.014Z,55.07
2017-08-16T15:17:50.316Z,55.45
2017-08-16T15:20:18.227Z,56.88
2017-08-16T15:22:46.135Z,56.29
2017-08-16T15:25:14.448Z,55.63
2017-08-16T15:27:42.356Z,56.18
2017-08-16T15:30:10.259Z,55.15
2017-08-16T15:32:38.167Z,55.38
2017-08-16T15:35:06.081Z,54.86
2017-08-16T15:37:34.391Z,55.17
2017-08-16T15:40:02.295Z,55.63
2017-08-16T15:42:30.221Z,57.43
2017-08-16T15:44:58.133Z,57.48
2017-08-16T15:47:26.311Z,57.84
2017-08-16T15:49:54.530Z,57.29
2017-08-16T15:52:22.444Z,57.54
2017-08-16T15:54:50.355Z,56.26
2017-08-16T15:57:18.665Z,55.90
2017-08-16T15:59:46.587Z,55.89
2017-08-16T16:02:14.485Z,56.69
2017-08-16T16:04:42.407Z,56.80
2017-08-16T16:07:10.315Z,57.12
2017-08-16T16:09:38.243Z,56.60
2017-08-16T16:12:06.163Z,56.86
2017-08-16T16:14:34.083Z,57.06
2017-08-16T16:17:02.074Z,56.66
2017-08-16T16:19:30.371Z,56.87
2017-08-16T16:21:58.291Z,57.12
2017-08-16T16:24:26.262Z,56.49
2017-08-16T16:26:54.178Z,55.61
2017-08-16T16:29:22.089Z,55.07
2017-08-16T16:31:49.999Z,55.80
2017-08-16T16:34:18.308Z,55.78
2017-08-16T16:36:46.228Z,56.20
2017-08-16T16:39:14.146Z,56.57
2017-08-16T16:41:42.478Z,57.55
2017-08-16T16:44:10.436Z,57.69
2017-08-16T16:46:38.335Z,57.93
2017-08-16T16:49:06.653Z,58.55
2017-08-16T16:51:34.554Z,59.56
2017-08-16T16:54:02.479Z,59.14
2017-08-16T16:56:30.645Z,60.05
2017-08-16T16:58:58.574Z,60.71
2017-08-16T17:01:26.495Z,61.22
2017-08-16T17:03:54.615Z,60.86
2017-08-16T17:06:22.523Z,60.71
2017-08-16T17:08:50.431Z,61.37
2017-08-16T17:11:18.363Z,60.85
2017-08-16T17:13:46.268Z,61.31
2017-08-16T17:16:14.192Z,61.80
2017-08-16T17:18:42.112Z,61.92
2017-08-16T17:21:10.033Z,62.26
2017-08-16T17:23:37.941Z,62.27
2017-08-16T17:26:05.852Z,62.01
2017-08-16T17:28:34.157Z,63.11
2017-08-16T17:31:02.374Z,64.11
2017-08-16T17:33:30.275Z,64.81
2017-08-16T17:35:58.571Z,64.85
2017-08-16T17:38:26.558Z,66.00
2017-08-16T17:40:54.459Z,65.90
2017-08-16T17:43:22.381Z,66.08
2017-08-16T17:45:50.285Z,66.03
2017-08-16T17:48:18.200Z,65.65
2017-08-16T17:50:46.508Z,66.53
2017-08-16T17:53:14.536Z,66.49
2017-08-16T17:55:42.436Z,66.98
2017-08-16T17:58:10.357Z,66.76
2017-08-16T18:00:38.265Z,66.76
2017-08-16T18:03:06.442Z,66.89
2017-08-16T18:05:34.355Z,66.49
2017-08-16T18:08:02.274Z,66.32
2017-08-16T18:10:30.598Z,67.15
2017-08-16T18:12:58.529Z,66.92
2017-08-16T18:15:26.439Z,67.31
2017-08-16T18:17:54.671Z,67.20
2017-08-16T18:20:22.579Z,67.09
2017-08-16T18:22:50.493Z,67.65
2017-08-16T18:25:18.799Z,67.65
2017-08-16T18:27:46.701Z,68.21
2017-08-16T18:30:14.655Z,68.10
2017-08-16T18:32:42.565Z,68.65
2017-08-16T18:35:10.640Z,68.84
2017-08-16T18:37:38.539Z,69.54
2017-08-16T18:40:06.440Z,69.12
2017-08-16T18:42:34.367Z,69.49
2017-08-16T18:45:02.679Z,69.02
2017-08-16T18:47:30.583Z,69.26
2017-08-16T18:49:58.491Z,70.17
2017-08-16T18:52:26.399Z,68.96
2017-08-16T18:54:54.316Z,69.70
2017-08-16T18:57:22.232Z,70.77
2017-08-16T18:59:50.188Z,69.57
2017-08-16T19:02:18.101Z,69.56
2017-08-16T19:04:46.168Z,70.44
2017-08-16T19:07:14.086Z,69.87
2017-08-16T19:09:42.266Z,70.52
2017-08-16T19:12:10.189Z,69.87
2017-08-16T19:14:38.109Z,70.86
2017-08-16T19:17:06.020Z,71.09
2017-08-16T19:19:33.933Z,71.45
2017-08-16T19:22:01.834Z,72.61
2017-08-16T19:24:29.749Z,73.52
2017-08-16T19:26:58.069Z,73.60
2017-08-16T19:29:25.981Z,74.73
2017-08-16T19:31:54.039Z,74.49
2017-08-16T19:34:21.957Z,73.91
2017-08-16T19:36:49.873Z,74.08
2017-08-16T19:39:17.798Z,74.26
2017-08-16T19:41:45.709Z,75.58
2017-08-16T19:44:13.633Z,75.33
2017-08-16T19:46:41.541Z,76.43
2017-08-16T19:49:09.782Z,77.04
2017-08-16T19:51:37.757Z,77.72
2017-08-16T19:54:05.773Z,77.05
2017-08-16T19:56:33.685Z,76.74
2017-08-16T19:59:01.595Z,77.41
2017-08-16T20:01:29.502Z,76.84
2017-08-16T20:03:57.947Z,76.54
2017-08-16T20:06:25.843Z,77.08
2017-08-16T20:08:54.149Z,77.30
2017-08-16T20:11:22.314Z,77.79
2017-08-16T20:13:50.225Z,77.53
2017-08-16T20:16:18.145Z,77.64
2017-08-16T20:18:46.438Z,77.65
2017-08-16T20:21:14.343Z,77.88
2017-08-16T20:23:42.257Z,78.12
2017-08-16T20:26:10.568Z,78.28
2017-08-16T20:28:38.475Z,78.56
2017-08-16T20:31:06.398Z,78.66
2017-08-16T20:33:34.303Z,78.71
2017-08-16T20:36:02.601Z,78.98
2017-08-16T20:38:30.514Z,79.19
2017-08-16T20:40:58.428Z,78.65
2017-08-16T20:43:26.344Z,79.08
2017-08-16T20:45:54.239Z,80.07
2017-08-16T20:48:22.149Z,80.27
2017-08-16T20:50:50.056Z,79.85
2017-08-16T20:53:17.963Z,79.99
2017-08-16T20:55:45.868Z,79.87
2017-08-16T20:58:14.173Z,80.59
2017-08-16T21:00:42.084Z,79.75
2017-08-16T21:03:10.005Z,79.55
2017-08-16T21:05:37.927Z,79.59
2017-08-16T21:08:05.995Z,79.70
2017-08-16T21:10:33.909Z,79.70
2017-08-16T21:13:01.806Z,79.90
2017-08-16T21:15:29.799Z,79.83
2017-08-16T21:17:57.707Z,80.04
2017-08-16T21:20:26.037Z,80.65
2017-08-16T21:22:53.948Z,80.04
2017-08-16T21:25:22.268Z,80.35
2017-08-16T21:27:50.272Z,80.76
2017-08-16T21:30:18.178Z,80.91
2017-08-16T21:32:46.113Z,81.88
2017-08-16T21:35:14.021Z,81.78
2017-08-16T21:37:41.919Z,82.10
2017-08-16T21:40:09.840Z,82.40
2017-08-16T21:42:38.135Z,82.59
2017-08-16T21:45:06.254Z,83.03
2017-08-16T21:47:34.227Z,83.39
2017-08-16T21:50:02.145Z,83.64
2017-08-16T21:52:30.052Z,83.20
2017-08-16T21:54:57.959Z,83.32
2017-08-16T21:57:26.277Z,83.07
2017-08-16T21:59:54.170Z,83.61
2017-08-16T22:02:22.264Z,83.39
2017-08-16T22:04:50.173Z,82.94
2017-08-16T22:07:18.071Z,82.76
2017-08-16T22:09:45.979Z,82.51
2017-08-16T22:12:13.884Z,84.05
2017-08-16T22:14:41.799Z,84.73
2017-08-16T22:17:09.698Z,85.07
2017-08-16T22:19:38.021Z,84.54
2017-08-16T22:22:05.975Z,84.21
2017-08-16T22:24:34.111Z,84.41
2017-08-16T22:27:02.408Z,85.11
2017-08-16T22:29:30.316Z,85.62
2017-08-16T22:31:58.227Z,86.28
2017-08-16T22:34:26.527Z,86.65
2017-08-16T22:36:54.515Z,86.46
2017-08-16T22:39:22.429Z,87.19
2017-08-16T22:41:50.485Z,87.04
2017-08-16T22:44:18.392Z,87.37
2017-08-16T22:46:46.692Z,87.40
2017-08-16T22:49:14.607Z,87.03
2017-08-16T22:51:42.517Z,86.88
2017-08-16T22:54:10.433Z,86.48
2017-08-16T22:56:38.335Z,86.79
2017-08-16T22:59:06.646Z,87.53
2017-08-16T23:01:34.553Z,87.75
2017-08-16T23:04:02.637Z,88.18
2017-08-16T23:06:30.544Z,88.18
2017-08-16T23:08:58.451Z,86.93
2017-08-16T23:11:26.368Z,87.12
2017-08-16T23:13:54.663Z,87.67
2017-08-16T23:16:22.581Z,88.48
2017-08-16T23:18:50.479Z,89.04
2017-08-16T23:21:18.798Z,89.17
2017-08-16T23:23:46.704Z,89.14
2017-08-16T23:26:14.980Z,89.24
2017-08-16T23:28:42.878Z,89.51
2017-08-16T23:31:11.175Z,89.36
2017-08-16T23:33:39.157Z,89.60
2017-08-16T23:36:07.070Z,89.62
2017-08-16T23:38:34.983Z,89.93
2017-08-16T23:41:03.148Z,89.89
2017-08-16T23:43:31.384Z,89.59
2017-08-16T23:45:59.298Z,89.25
2017-08-16T23:48:27.202Z,89.58
2017-08-16T23:50:55.126Z,89.49
2017-08-16T23:53:23.419Z,89.75
2017-08-16T23:55:51.579Z,89.68
2017-08-16T23:58:19.483Z,89.72
